sensor_id;sensor_type;location;lat;lon;timestamp;temperature;humidity
13496;DHT22;6820;49.374;8.452;2023-07-13T00:02:52;23.39;99.99
13496;DHT22;6820;49.374;8.452;2023-07-13T00:06:57;23.31;99.99
13496;DHT22;6820;49.374;8.452;2023-07-13T00:10:59;23.21;99.99
13496;DHT22;6820;49.374;8.452;2023-07-13T00:15:04;23.14;99.99
13496;DHT22;6820;49.374;8.452;2023-07-13T00:19:08;23.06;99.99
13496;DHT22;6820;49.374;8.452;2023-07-13T00:23:09;22.94;99.99
13496;DHT22;6820;49.374;8.452;2023-07-13T00:27:11;22.89;99.99
13496;DHT22;6820;49.374;8.452;2023-07-13T00:31:13;22.82;99.99
13496;DHT22;6820;49.374;8.452;2023-07-13T00:35:18;22.70;99.99
13496;DHT22;6820;49.374;8.452;2023-07-13T00:39:20;22.59;99.99
13496;DHT22;6820;49.374;8.452;2023-07-13T00:43:22;22.46;99.99
13496;DHT22;6820;49.374;8.452;2023-07-13T00:47:25;22.27;99.99
13496;DHT22;6820;49.374;8.452;2023-07-13T00:51:31;22.15;99.99
13496;DHT22;6820;49.374;8.452;2023-07-13T00:55:38;21.98;99.99
13496;DHT22;6820;49.374;8.452;2023-07-13T00:59:42;21.85;99.99
13496;DHT22;6820;49.374;8.452;2023-07-13T01:03:47;21.81;99.99
13496;DHT22;6820;49.374;8.452;2023-07-13T01:07:49;21.81;99.99
13496;DHT22;6820;49.374;8.452;2023-07-13T01:11:53;21.74;99.99
13496;DHT22;6820;49.374;8.452;2023-07-13T01:16:03;21.74;99.99
13496;DHT22;6820;49.374;8.452;2023-07-13T01:20:15;21.75;99.99
13496;DHT22;6820;49.374;8.452;2023-07-13T01:24:17;21.59;99.99
13496;DHT22;6820;49.374;8.452;2023-07-13T01:28:19;21.66;99.99
13496;DHT22;6820;49.374;8.452;2023-07-13T01:32:22;21.71;99.99
13496;DHT22;6820;49.374;8.452;2023-07-13T01:36:28;21.63;99.99
13496;DHT22;6820;49.374;8.452;2023-07-13T01:40:30;21.55;99.99
13496;DHT22;6820;49.374;8.452;2023-07-13T01:44:32;21.37;99.99
13496;DHT22;6820;49.374;8.452;2023-07-13T01:48:33;21.30;99.99
13496;DHT22;6820;49.374;8.452;2023-07-13T01:52:35;21.26;99.99
13496;DHT22;6820;49.374;8.452;2023-07-13T01:56:37;21.22;99.99
13496;DHT22;6820;49.374;8.452;2023-07-13T02:00:39;21.19;99.99
13496;DHT22;6820;49.374;8.452;2023-07-13T02:04:40;21.18;99.99
13496;DHT22;6820;49.374;8.452;2023-07-13T02:08:42;21.11;99.99
13496;DHT22;6820;49.374;8.452;2023-07-13T02:12:44;21.13;99.99
13496;DHT22;6820;49.374;8.452;2023-07-13T02:16:46;21.24;99.99
13496;DHT22;6820;49.374;8.452;2023-07-13T02:20:49;21.31;99.99
13496;DHT22;6820;49.374;8.452;2023-07-13T02:24:51;21.27;99.99
13496;DHT22;6820;49.374;8.452;2023-07-13T02:28:53;21.21;99.99
13496;DHT22;6820;49.374;8.452;2023-07-13T02:32:55;21.06;99.99
13496;DHT22;6820;49.374;8.452;2023-07-13T02:36:57;21.01;99.99
13496;DHT22;6820;49.374;8.452;2023-07-13T02:40:59;20.91;99.99
13496;DHT22;6820;49.374;8.452;2023-07-13T02:45:03;20.87;99.99
13496;DHT22;6820;49.374;8.452;2023-07-13T02:49:04;20.78;99.99
13496;DHT22;6820;49.374;8.452;2023-07-13T02:53:06;20.72;99.99
13496;DHT22;6820;49.374;8.452;2023-07-13T02:57:08;20.71;99.99
13496;DHT22;6820;49.374;8.452;2023-07-13T03:01:10;20.69;99.99
13496;DHT22;6820;49.374;8.452;2023-07-13T03:05:13;20.66;99.99
13496;DHT22;6820;49.374;8.452;2023-07-13T03:09:17;20.69;99.99
13496;DHT22;6820;49.374;8.452;2023-07-13T03:13:24;20.68;99.99
13496;DHT22;6820;49.374;8.452;2023-07-13T03:17:26;20.71;99.99
13496;DHT22;6820;49.374;8.452;2023-07-13T03:21:28;20.73;99.99
13496;DHT22;6820;49.374;8.452;2023-07-13T03:25:30;20.68;99.99
13496;DHT22;6820;49.374;8.452;2023-07-13T03:29:34;20.61;99.99
13496;DHT22;6820;49.374;8.452;2023-07-13T03:33:36;20.63;99.99
13496;DHT22;6820;49.374;8.452;2023-07-13T03:37:39;20.66;99.99
13496;DHT22;6820;49.374;8.452;2023-07-13T03:41:48;20.68;99.99
13496;DHT22;6820;49.374;8.452;2023-07-13T03:45:51;20.69;99.99
13496;DHT22;6820;49.374;8.452;2023-07-13T03:49:53;20.64;99.99
13496;DHT22;6820;49.374;8.452;2023-07-13T03:53:55;20.61;99.99
13496;DHT22;6820;49.374;8.452;2023-07-13T03:57:58;20.57;99.99
13496;DHT22;6820;49.374;8.452;2023-07-13T04:02:02;20.51;99.99
13496;DHT22;6820;49.374;8.452;2023-07-13T04:06:08;20.50;99.99
13496;DHT22;6820;49.374;8.452;2023-07-13T04:10:16;20.53;99.99
13496;DHT22;6820;49.374;8.452;2023-07-13T04:14:18;20.57;99.99
13496;DHT22;6820;49.374;8.452;2023-07-13T04:18:21;20.56;99.99
13496;DHT22;6820;49.374;8.452;2023-07-13T04:22:23;20.54;99.99
13496;DHT22;6820;49.374;8.452;2023-07-13T04:26:25;20.56;99.99
13496;DHT22;6820;49.374;8.452;2023-07-13T04:30:26;20.53;99.99
13496;DHT22;6820;49.374;8.452;2023-07-13T04:34:28;20.54;99.99
13496;DHT22;6820;49.374;8.452;2023-07-13T04:38:30;20.53;99.99
13496;DHT22;6820;49.374;8.452;2023-07-13T04:42:34;20.50;99.99
13496;DHT22;6820;49.374;8.452;2023-07-13T04:46:35;20.54;99.99
13496;DHT22;6820;49.374;8.452;2023-07-13T04:50:39;20.44;99.99
13496;DHT22;6820;49.374;8.452;2023-07-13T04:54:41;20.51;99.99
13496;DHT22;6820;49.374;8.452;2023-07-13T04:58:43;20.53;99.99
13496;DHT22;6820;49.374;8.452;2023-07-13T05:02:45;20.50;99.99
13496;DHT22;6820;49.374;8.452;2023-07-13T05:06:47;20.50;99.99
13496;DHT22;6820;49.374;8.452;2023-07-13T05:10:49;20.46;99.99
13496;DHT22;6820;49.374;8.452;2023-07-13T05:14:51;20.38;99.99
13496;DHT22;6820;49.374;8.452;2023-07-13T05:18:53;20.37;99.99
13496;DHT22;6820;49.374;8.452;2023-07-13T05:22:56;20.27;99.99
13496;DHT22;6820;49.374;8.452;2023-07-13T05:26:57;20.13;99.99
13496;DHT22;6820;49.374;8.452;2023-07-13T05:30:59;20.08;99.99
13496;DHT22;6820;49.374;8.452;2023-07-13T05:35:01;20.04;99.99
13496;DHT22;6820;49.374;8.452;2023-07-13T05:39:04;20.10;99.99
13496;DHT22;6820;49.374;8.452;2023-07-13T05:43:06;20.20;99.99
13496;DHT22;6820;49.374;8.452;2023-07-13T05:47:09;20.30;99.99
13496;DHT22;6820;49.374;8.452;2023-07-13T05:51:15;20.41;99.99
13496;DHT22;6820;49.374;8.452;2023-07-13T05:55:17;20.41;99.99
13496;DHT22;6820;49.374;8.452;2023-07-13T05:59:19;20.38;99.99
13496;DHT22;6820;49.374;8.452;2023-07-13T06:03:20;20.41;99.99
13496;DHT22;6820;49.374;8.452;2023-07-13T06:07:22;20.51;99.99
13496;DHT22;6820;49.374;8.452;2023-07-13T06:11:25;20.54;99.99
13496;DHT22;6820;49.374;8.452;2023-07-13T06:15:28;20.58;99.99
13496;DHT22;6820;49.374;8.452;2023-07-13T06:19:30;20.63;99.99
13496;DHT22;6820;49.374;8.452;2023-07-13T06:23:32;20.76;99.99
13496;DHT22;6820;49.374;8.452;2023-07-13T06:27:34;20.87;99.99
13496;DHT22;6820;49.374;8.452;2023-07-13T06:31:35;20.94;99.99
13496;DHT22;6820;49.374;8.452;2023-07-13T06:35:37;20.96;99.99
13496;DHT22;6820;49.374;8.452;2023-07-13T06:39:39;21.05;99.99
13496;DHT22;6820;49.374;8.452;2023-07-13T06:43:40;21.15;99.99
13496;DHT22;6820;49.374;8.452;2023-07-13T06:47:42;21.16;99.99
13496;DHT22;6820;49.374;8.452;2023-07-13T06:51:44;21.27;99.99
13496;DHT22;6820;49.374;8.452;2023-07-13T06:55:46;21.38;99.99
13496;DHT22;6820;49.374;8.452;2023-07-13T06:59:48;21.51;99.99
13496;DHT22;6820;49.374;8.452;2023-07-13T07:03:50;21.55;99.99
13496;DHT22;6820;49.374;8.452;2023-07-13T07:07:52;21.63;99.99
13496;DHT22;6820;49.374;8.452;2023-07-13T07:11:55;21.75;99.99
13496;DHT22;6820;49.374;8.452;2023-07-13T07:16:04;21.83;99.99
13496;DHT22;6820;49.374;8.452;2023-07-13T07:20:06;21.89;99.99
13496;DHT22;6820;49.374;8.452;2023-07-13T07:24:08;21.94;99.99
13496;DHT22;6820;49.374;8.452;2023-07-13T07:28:10;22.08;99.99
13496;DHT22;6820;49.374;8.452;2023-07-13T07:32:16;22.15;99.99
13496;DHT22;6820;49.374;8.452;2023-07-13T07:36:37;22.26;99.99
13496;DHT22;6820;49.374;8.452;2023-07-13T07:40:42;22.38;99.99
13496;DHT22;6820;49.374;8.452;2023-07-13T07:44:46;22.48;99.99
13496;DHT22;6820;49.374;8.452;2023-07-13T07:48:48;22.54;99.99
13496;DHT22;6820;49.374;8.452;2023-07-13T07:52:50;22.69;99.99
13496;DHT22;6820;49.374;8.452;2023-07-13T07:56:52;22.79;99.99
13496;DHT22;6820;49.374;8.452;2023-07-13T08:01:04;22.96;99.99
13496;DHT22;6820;49.374;8.452;2023-07-13T08:05:10;23.03;99.99
13496;DHT22;6820;49.374;8.452;2023-07-13T08:09:15;23.18;99.99
13496;DHT22;6820;49.374;8.452;2023-07-13T08:13:16;23.31;99.99
13496;DHT22;6820;49.374;8.452;2023-07-13T08:17:19;23.39;99.99
13496;DHT22;6820;49.374;8.452;2023-07-13T08:21:22;23.54;99.99
13496;DHT22;6820;49.374;8.452;2023-07-13T08:25:24;23.69;99.99
13496;DHT22;6820;49.374;8.452;2023-07-13T08:29:25;23.84;99.99
13496;DHT22;6820;49.374;8.452;2023-07-13T08:33:27;23.93;99.99
13496;DHT22;6820;49.374;8.452;2023-07-13T08:37:29;23.99;99.99
13496;DHT22;6820;49.374;8.452;2023-07-13T08:41:30;24.11;99.99
13496;DHT22;6820;49.374;8.452;2023-07-13T08:45:41;24.26;99.99
13496;DHT22;6820;49.374;8.452;2023-07-13T08:49:45;24.51;99.99
13496;DHT22;6820;49.374;8.452;2023-07-13T08:53:49;24.79;99.96
13496;DHT22;6820;49.374;8.452;2023-07-13T08:58:05;24.89;99.32
13496;DHT22;6820;49.374;8.452;2023-07-13T09:06:42;24.66;99.99
13496;DHT22;6820;49.374;8.452;2023-07-13T09:11:20;24.71;99.71
13496;DHT22;6820;49.374;8.452;2023-07-13T09:19:46;24.80;99.32
13496;DHT22;6820;49.374;8.452;2023-07-13T09:23:54;24.86;99.62
13496;DHT22;6820;49.374;8.452;2023-07-13T09:32:24;25.46;97.98
13496;DHT22;6820;49.374;8.452;2023-07-13T09:36:28;25.90;95.80
13496;DHT22;6820;49.374;8.452;2023-07-13T09:40:36;25.90;94.02
13496;DHT22;6820;49.374;8.452;2023-07-13T09:45:04;25.81;94.71
13496;DHT22;6820;49.374;8.452;2023-07-13T09:49:09;25.64;95.21
13496;DHT22;6820;49.374;8.452;2023-07-13T09:53:13;25.54;94.86
13496;DHT22;6820;49.374;8.452;2023-07-13T09:57:17;25.51;95.36
13496;DHT22;6820;49.374;8.452;2023-07-13T10:05:41;25.54;94.41
13496;DHT22;6820;49.374;8.452;2023-07-13T10:09:44;25.91;94.76
13496;DHT22;6820;49.374;8.452;2023-07-13T10:17:56;25.91;93.63
13496;DHT22;6820;49.374;8.452;2023-07-13T10:22:00;25.94;93.73
13496;DHT22;6820;49.374;8.452;2023-07-13T10:26:13;26.03;93.23
13496;DHT22;6820;49.374;8.452;2023-07-13T10:34:29;26.16;92.19
13496;DHT22;6820;49.374;8.452;2023-07-13T10:38:32;26.16;91.80
13496;DHT22;6820;49.374;8.452;2023-07-13T10:42:39;26.12;90.11
13496;DHT22;6820;49.374;8.452;2023-07-13T10:46:43;26.12;89.42
13496;DHT22;6820;49.374;8.452;2023-07-13T10:50:46;26.35;89.12
13496;DHT22;6820;49.374;8.452;2023-07-13T10:54:51;26.34;87.79
13496;DHT22;6820;49.374;8.452;2023-07-13T11:03:17;26.16;87.10
13496;DHT22;6820;49.374;8.452;2023-07-13T11:07:27;26.12;88.62
13496;DHT22;6820;49.374;8.452;2023-07-13T11:11:35;26.19;87.93
13496;DHT22;6820;49.374;8.452;2023-07-13T11:15:43;26.27;87.73
13496;DHT22;6820;49.374;8.452;2023-07-13T11:19:51;26.39;87.88
13496;DHT22;6820;49.374;8.452;2023-07-13T11:24:01;26.56;88.28
13496;DHT22;6820;49.374;8.452;2023-07-13T11:28:22;26.76;88.44
13496;DHT22;6820;49.374;8.452;2023-07-13T11:32:29;26.75;85.92
13496;DHT22;6820;49.374;8.452;2023-07-13T11:36:35;27.09;86.71
13496;DHT22;6820;49.374;8.452;2023-07-13T11:40:45;27.11;83.61
13496;DHT22;6820;49.374;8.452;2023-07-13T11:44:55;27.38;84.20
13496;DHT22;6820;49.374;8.452;2023-07-13T11:49:11;27.59;82.57
13496;DHT22;6820;49.374;8.452;2023-07-13T11:53:17;27.31;82.24
13496;DHT22;6820;49.374;8.452;2023-07-13T12:01:35;27.27;83.92
13496;DHT22;6820;49.374;8.452;2023-07-13T12:06:02;27.62;84.06
13496;DHT22;6820;49.374;8.452;2023-07-13T12:14:18;27.55;83.62
13496;DHT22;6820;49.374;8.452;2023-07-13T12:18:21;27.93;82.83
13496;DHT22;6820;49.374;8.452;2023-07-13T12:22:24;28.54;80.91
13496;DHT22;6820;49.374;8.452;2023-07-13T12:26:26;28.69;80.50
13496;DHT22;6820;49.374;8.452;2023-07-13T12:30:32;29.25;80.27
13496;DHT22;6820;49.374;8.452;2023-07-13T12:34:49;29.30;79.10
13496;DHT22;6820;49.374;8.452;2023-07-13T12:38:58;28.72;80.09
13496;DHT22;6820;49.374;8.452;2023-07-13T12:43:09;28.35;80.36
13496;DHT22;6820;49.374;8.452;2023-07-13T12:47:14;28.06;83.50
13496;DHT22;6820;49.374;8.452;2023-07-13T12:51:20;27.96;84.63
13496;DHT22;6820;49.374;8.452;2023-07-13T12:55:23;28.06;84.08
13496;DHT22;6820;49.374;8.452;2023-07-13T12:59:29;27.95;82.56
13496;DHT22;6820;49.374;8.452;2023-07-13T13:03:38;28.33;81.41
13496;DHT22;6820;49.374;8.452;2023-07-13T13:07:42;28.24;80.83
13496;DHT22;6820;49.374;8.452;2023-07-13T13:11:47;28.45;81.33
13496;DHT22;6820;49.374;8.452;2023-07-13T13:15:49;28.39;80.70
13496;DHT22;6820;49.374;8.452;2023-07-13T13:19:51;28.35;82.51
13496;DHT22;6820;49.374;8.452;2023-07-13T13:23:55;28.25;82.71
13496;DHT22;6820;49.374;8.452;2023-07-13T13:27:57;28.15;82.61
13496;DHT22;6820;49.374;8.452;2023-07-13T13:31:59;28.21;83.34
13496;DHT22;6820;49.374;8.452;2023-07-13T13:36:01;28.48;83.60
13496;DHT22;6820;49.374;8.452;2023-07-13T13:40:04;28.58;82.37
13496;DHT22;6820;49.374;8.452;2023-07-13T13:44:15;28.48;81.98
13496;DHT22;6820;49.374;8.452;2023-07-13T13:48:19;28.45;82.87
13496;DHT22;6820;49.374;8.452;2023-07-13T13:52:23;28.70;80.70
13496;DHT22;6820;49.374;8.452;2023-07-13T13:56:26;28.58;81.35
13496;DHT22;6820;49.374;8.452;2023-07-13T14:00:28;28.64;81.59
13496;DHT22;6820;49.374;8.452;2023-07-13T14:04:30;28.64;81.09
13496;DHT22;6820;49.374;8.452;2023-07-13T14:08:32;29.33;80.21
13496;DHT22;6820;49.374;8.452;2023-07-13T14:12:34;29.12;80.58
13496;DHT22;6820;49.374;8.452;2023-07-13T14:16:35;28.65;80.72
13496;DHT22;6820;49.374;8.452;2023-07-13T14:20:37;28.33;81.88
13496;DHT22;6820;49.374;8.452;2023-07-13T14:24:39;28.33;82.51
13496;DHT22;6820;49.374;8.452;2023-07-13T14:28:41;28.11;83.20
13496;DHT22;6820;49.374;8.452;2023-07-13T14:32:45;27.91;83.64
13496;DHT22;6820;49.374;8.452;2023-07-13T14:36:48;27.84;83.78
13496;DHT22;6820;49.374;8.452;2023-07-13T14:40:51;27.84;82.79
13496;DHT22;6820;49.374;8.452;2023-07-13T14:44:53;27.76;82.79
13496;DHT22;6820;49.374;8.452;2023-07-13T14:49:03;27.74;82.79
13496;DHT22;6820;49.374;8.452;2023-07-13T14:53:09;27.88;83.88
13496;DHT22;6820;49.374;8.452;2023-07-13T14:57:12;28.18;83.48
13496;DHT22;6820;49.374;8.452;2023-07-13T15:01:16;28.64;82.26
13496;DHT22;6820;49.374;8.452;2023-07-13T15:05:19;28.74;81.79
13496;DHT22;6820;49.374;8.452;2023-07-13T15:09:26;28.88;81.84
13496;DHT22;6820;49.374;8.452;2023-07-13T15:13:30;29.20;81.65
13496;DHT22;6820;49.374;8.452;2023-07-13T15:17:36;29.18;80.48
13496;DHT22;6820;49.374;8.452;2023-07-13T15:21:40;28.73;80.19
13496;DHT22;6820;49.374;8.452;2023-07-13T15:25:43;28.39;81.25
13496;DHT22;6820;49.374;8.452;2023-07-13T15:29:46;28.33;81.33
13496;DHT22;6820;49.374;8.452;2023-07-13T15:33:51;28.48;81.82
13496;DHT22;6820;49.374;8.452;2023-07-13T15:37:54;28.73;81.59
13496;DHT22;6820;49.374;8.452;2023-07-13T15:41:56;28.79;80.56
13496;DHT22;6820;49.374;8.452;2023-07-13T15:45:58;28.92;80.36
13496;DHT22;6820;49.374;8.452;2023-07-13T15:50:00;29.36;79.93
13496;DHT22;6820;49.374;8.452;2023-07-13T15:54:02;29.89;78.71
13496;DHT22;6820;49.374;8.452;2023-07-13T15:58:08;30.19;78.34
13496;DHT22;6820;49.374;8.452;2023-07-13T16:02:14;30.30;77.67
13496;DHT22;6820;49.374;8.452;2023-07-13T16:06:22;30.34;78.27
13496;DHT22;6820;49.374;8.452;2023-07-13T16:10:31;29.76;77.87
13496;DHT22;6820;49.374;8.452;2023-07-13T16:14:35;29.76;77.95
13496;DHT22;6820;49.374;8.452;2023-07-13T16:18:37;30.08;78.24
13496;DHT22;6820;49.374;8.452;2023-07-13T16:22:40;30.19;77.51
13496;DHT22;6820;49.374;8.452;2023-07-13T16:26:43;30.23;77.67
13496;DHT22;6820;49.374;8.452;2023-07-13T16:30:46;30.15;77.48
13496;DHT22;6820;49.374;8.452;2023-07-13T16:34:49;30.04;77.77
13496;DHT22;6820;49.374;8.452;2023-07-13T16:38:50;29.51;78.69
13496;DHT22;6820;49.374;8.452;2023-07-13T16:42:53;29.81;78.38
13496;DHT22;6820;49.374;8.452;2023-07-13T16:46:57;30.03;77.45
13496;DHT22;6820;49.374;8.452;2023-07-13T16:51:02;29.66;78.11
13496;DHT22;6820;49.374;8.452;2023-07-13T16:55:08;29.52;78.24
13496;DHT22;6820;49.374;8.452;2023-07-13T16:59:13;29.63;77.78
13496;DHT22;6820;49.374;8.452;2023-07-13T17:03:16;29.81;77.78
13496;DHT22;6820;49.374;8.452;2023-07-13T17:07:19;29.63;78.05
13496;DHT22;6820;49.374;8.452;2023-07-13T17:11:24;29.47;78.08
13496;DHT22;6820;49.374;8.452;2023-07-13T17:15:27;29.49;78.47
13496;DHT22;6820;49.374;8.452;2023-07-13T17:19:31;29.30;78.67
13496;DHT22;6820;49.374;8.452;2023-07-13T17:23:35;29.08;78.52
13496;DHT22;6820;49.374;8.452;2023-07-13T17:27:39;28.94;79.14
13496;DHT22;6820;49.374;8.452;2023-07-13T17:31:42;28.74;79.74
13496;DHT22;6820;49.374;8.452;2023-07-13T17:35:44;28.43;80.17
13496;DHT22;6820;49.374;8.452;2023-07-13T17:39:46;28.14;80.54
13496;DHT22;6820;49.374;8.452;2023-07-13T17:43:48;27.93;81.57
13496;DHT22;6820;49.374;8.452;2023-07-13T17:47:49;27.78;82.20
13496;DHT22;6820;49.374;8.452;2023-07-13T17:51:54;27.61;82.40
13496;DHT22;6820;49.374;8.452;2023-07-13T17:55:57;27.40;82.54
13496;DHT22;6820;49.374;8.452;2023-07-13T17:59:59;27.27;83.17
13496;DHT22;6820;49.374;8.452;2023-07-13T18:04:00;27.12;83.07
13496;DHT22;6820;49.374;8.452;2023-07-13T18:08:06;27.08;83.90
13496;DHT22;6820;49.374;8.452;2023-07-13T18:12:18;26.98;83.70
13496;DHT22;6820;49.374;8.452;2023-07-13T18:16:25;26.78;83.61
13496;DHT22;6820;49.374;8.452;2023-07-13T18:20:29;26.71;84.24
13496;DHT22;6820;49.374;8.452;2023-07-13T18:24:30;26.60;84.48
13496;DHT22;6820;49.374;8.452;2023-07-13T18:28:32;26.54;84.88
13496;DHT22;6820;49.374;8.452;2023-07-13T18:32:34;26.47;85.27
13496;DHT22;6820;49.374;8.452;2023-07-13T18:36:37;26.39;86.00
13496;DHT22;6820;49.374;8.452;2023-07-13T18:40:40;26.35;86.90
13496;DHT22;6820;49.374;8.452;2023-07-13T18:44:42;26.29;87.10
13496;DHT22;6820;49.374;8.452;2023-07-13T18:48:44;26.24;87.59
13496;DHT22;6820;49.374;8.452;2023-07-13T18:52:46;26.19;88.13
13496;DHT22;6820;49.374;8.452;2023-07-13T18:56:49;26.04;88.32
13496;DHT22;6820;49.374;8.452;2023-07-13T19:00:51;26.00;88.72
13496;DHT22;6820;49.374;8.452;2023-07-13T19:04:59;25.90;89.16
13496;DHT22;6820;49.374;8.452;2023-07-13T19:09:01;25.85;89.66
13496;DHT22;6820;49.374;8.452;2023-07-13T19:13:03;25.79;89.66
13496;DHT22;6820;49.374;8.452;2023-07-13T19:17:08;25.64;90.25
13496;DHT22;6820;49.374;8.452;2023-07-13T19:21:17;25.59;90.69
13496;DHT22;6820;49.374;8.452;2023-07-13T19:25:26;25.49;90.99
13496;DHT22;6820;49.374;8.452;2023-07-13T19:29:29;25.38;91.63
13496;DHT22;6820;49.374;8.452;2023-07-13T19:33:31;25.27;92.03
13496;DHT22;6820;49.374;8.452;2023-07-13T19:37:33;25.24;92.27
13496;DHT22;6820;49.374;8.452;2023-07-13T19:41:39;25.17;92.37
13496;DHT22;6820;49.374;8.452;2023-07-13T19:45:41;25.08;92.77
13496;DHT22;6820;49.374;8.452;2023-07-13T19:49:43;25.01;92.67
13496;DHT22;6820;49.374;8.452;2023-07-13T19:53:45;24.90;93.01
13496;DHT22;6820;49.374;8.452;2023-07-13T19:57:48;24.80;93.01
13496;DHT22;6820;49.374;8.452;2023-07-13T20:01:50;24.74;93.45
13496;DHT22;6820;49.374;8.452;2023-07-13T20:05:52;24.56;93.45
13496;DHT22;6820;49.374;8.452;2023-07-13T20:09:54;24.55;93.90
13496;DHT22;6820;49.374;8.452;2023-07-13T20:13:56;24.52;94.29
13496;DHT22;6820;49.374;8.452;2023-07-13T20:17:58;24.49;94.99
13496;DHT22;6820;49.374;8.452;2023-07-13T20:22:04;24.42;95.59
13496;DHT22;6820;49.374;8.452;2023-07-13T20:26:06;24.36;96.08
13496;DHT22;6820;49.374;8.452;2023-07-13T20:30:09;24.31;96.58
13496;DHT22;6820;49.374;8.452;2023-07-13T20:34:38;24.27;96.23
13496;DHT22;6820;49.374;8.452;2023-07-13T20:38:38;24.30;96.13
13496;DHT22;6820;49.374;8.452;2023-07-13T20:42:40;24.29;95.23
13496;DHT22;6820;49.374;8.452;2023-07-13T20:46:41;24.30;94.64
13496;DHT22;6820;49.374;8.452;2023-07-13T20:50:43;24.26;94.64
13496;DHT22;6820;49.374;8.452;2023-07-13T20:54:47;24.24;94.54
13496;DHT22;6820;49.374;8.452;2023-07-13T20:58:49;24.19;94.84
13496;DHT22;6820;49.374;8.452;2023-07-13T21:02:54;24.19;94.93
13496;DHT22;6820;49.374;8.452;2023-07-13T21:07:02;24.18;94.84
13496;DHT22;6820;49.374;8.452;2023-07-13T21:11:04;24.12;94.64
13496;DHT22;6820;49.374;8.452;2023-07-13T21:15:08;24.09;94.93
13496;DHT22;6820;49.374;8.452;2023-07-13T21:19:11;24.09;94.98
13496;DHT22;6820;49.374;8.452;2023-07-13T21:23:32;24.11;94.98
13496;DHT22;6820;49.374;8.452;2023-07-13T21:27:36;24.11;95.33
13496;DHT22;6820;49.374;8.452;2023-07-13T21:31:37;24.12;95.63
13496;DHT22;6820;49.374;8.452;2023-07-13T21:35:39;24.08;95.63
13496;DHT22;6820;49.374;8.452;2023-07-13T21:39:44;24.08;96.17
13496;DHT22;6820;49.374;8.452;2023-07-13T21:43:50;24.06;96.58
13496;DHT22;6820;49.374;8.452;2023-07-13T21:47:52;24.05;96.28
13496;DHT22;6820;49.374;8.452;2023-07-13T21:51:55;24.00;96.28
13496;DHT22;6820;49.374;8.452;2023-07-13T21:55:58;23.87;97.07
13496;DHT22;6820;49.374;8.452;2023-07-13T22:00:01;23.79;97.57
13496;DHT22;6820;49.374;8.452;2023-07-13T22:04:16;23.81;97.52
13496;DHT22;6820;49.374;8.452;2023-07-13T22:08:30;23.81;97.52
13496;DHT22;6820;49.374;8.452;2023-07-13T22:12:37;23.77;97.72
13496;DHT22;6820;49.374;8.452;2023-07-13T22:16:38;23.75;98.11
13496;DHT22;6820;49.374;8.452;2023-07-13T22:20:41;23.74;98.11
13496;DHT22;6820;49.374;8.452;2023-07-13T22:24:43;23.69;98.02
13496;DHT22;6820;49.374;8.452;2023-07-13T22:28:45;23.68;98.11
13496;DHT22;6820;49.374;8.452;2023-07-13T22:32:48;23.64;98.51
13496;DHT22;6820;49.374;8.452;2023-07-13T22:36:50;23.60;98.21
13496;DHT22;6820;49.374;8.452;2023-07-13T22:40:51;23.54;98.26
13496;DHT22;6820;49.374;8.452;2023-07-13T22:44:54;23.50;98.26
13496;DHT22;6820;49.374;8.452;2023-07-13T22:48:57;23.47;98.46
13496;DHT22;6820;49.374;8.452;2023-07-13T22:53:14;23.44;98.56
13496;DHT22;6820;49.374;8.452;2023-07-13T22:57:18;23.45;98.56
13496;DHT22;6820;49.374;8.452;2023-07-13T23:01:22;23.44;98.56
13496;DHT22;6820;49.374;8.452;2023-07-13T23:05:28;23.39;98.86
13496;DHT22;6820;49.374;8.452;2023-07-13T23:09:30;23.37;99.26
13496;DHT22;6820;49.374;8.452;2023-07-13T23:13:33;23.31;99.40
13496;DHT22;6820;49.374;8.452;2023-07-13T23:17:35;23.26;99.30
13496;DHT22;6820;49.374;8.452;2023-07-13T23:21:37;23.23;99.51
13496;DHT22;6820;49.374;8.452;2023-07-13T23:25:40;23.18;99.21
13496;DHT22;6820;49.374;8.452;2023-07-13T23:29:42;23.09;99.30
13496;DHT22;6820;49.374;8.452;2023-07-13T23:33:43;23.07;99.75
13496;DHT22;6820;49.374;8.452;2023-07-13T23:37:45;23.01;99.85
13496;DHT22;6820;49.374;8.452;2023-07-13T23:41:50;22.97;99.95
13496;DHT22;6820;49.374;8.452;2023-07-13T23:45:52;22.93;99.99
13496;DHT22;6820;49.374;8.452;2023-07-13T23:49:53;22.88;99.99
13496;DHT22;6820;49.374;8.452;2023-07-13T23:53:57;22.84;99.99
13496;DHT22;6820;49.374;8.452;2023-07-13T23:57:59;22.81;99.99
